Flight Track Log - Related Links

Times and Time Zones

All times are in EDT time to prevent confusion due to time zone crossing. See the GJS3710 flight status page for this flight to view local times or setup timezone preferences in your user account.

Time Position Orientation Groundspeed Altitude Reporting Facility
EDT Latitude Longitude Course Direction KTS MPH feet Rate Location/Type
Sat 10:36:57 PM 38.9500 -77.5167 288° West 169 194 2,000  Level Potomac TRACON
Sat 10:37:57 PM 38.9167 -77.6000 243° Southwest 217 250 4,000 1,806 Climbing Potomac TRACON
Sat 10:38:40 PM 38.9125 -77.6486 264° West 262 302 5,100 2,447 Climbing Washington Center
Sat 10:39:40 PM 38.8942 -77.7494 257° West 270 311 8,200 2,678 Climbing Washington Center
Sat 10:40:41 PM 38.9092 -77.8406 282° West 280 322 10,500 2,017 Climbing Washington Center
Sat 10:41:39 PM 38.9253 -77.9744 279° West 316 364 12,200 1,966 Climbing Washington Center
Sat 10:42:00 PM 38.9166 -78.0995 288° West  Level FlightAware Approximate
Sat 10:42:40 PM 38.9381 -78.0683 280° West 330 380 14,400  Level Washington Center
Sat 10:43:39 PM 38.9581 -78.1997 281° West 342 394 16,100 1,800 Climbing Washington Center
Sat 10:44:40 PM 38.9656 -78.3336 274° West 361 415 18,000 1,884 Climbing Washington Center
Sat 10:45:40 PM 38.9689 -78.4644 272° West 367 422 19,900 1,800 Climbing Washington Center
Sat 10:46:40 PM 38.9717 -78.5981 272° West 372 428 21,600 1,587 Climbing Washington Center
Sat 10:47:41 PM 38.9767 -78.7372 273° West 384 442 23,100 1,563 Climbing Washington Center
Sat 10:48:39 PM 38.9811 -78.8761 272° West 389 448 24,700 1,613 Climbing Washington Center
Sat 10:49:40 PM 38.9856 -79.0125 272° West 389 448 26,300 1,600 Climbing Washington Center
Sat 10:50:39 PM 38.9878 -79.1517 271° West 389 448 27,900 1,400 Climbing Washington Center
Sat 10:51:40 PM 38.9919 -79.2906 272° West 384 442 29,100 942 Climbing Washington Center
Sat 10:52:40 PM 38.9961 -79.4269 272° West 384 442 29,800 700 Climbing Washington Center
Sat 10:53:40 PM 38.9989 -79.5956 271° West 410 472 30,500 655 Climbing Washington Center
Sat 10:54:39 PM 39.0000 -79.7453 271° West 422 486 31,100 600 Climbing Washington Center
Sat 10:55:40 PM 39.0039 -79.8789 272° West 427 491 31,700 600 Climbing Washington Center
Sat 10:57:19 PM 39.0047 -80.1450 270° West 429 494 32,700 604 Climbing Indianapolis Center
Sat 10:58:19 PM 39.0169 -80.2956 276° West 427 491 33,300 793 Climbing Indianapolis Center
Sat 10:59:20 PM 39.0406 -80.4433 282° West 422 486 34,300 942 Climbing Indianapolis Center
Sat 11:00:20 PM 39.0639 -80.5883 282° West 416 479 35,200 843 Climbing Indianapolis Center
Sat 11:01:21 PM 39.0858 -80.7297 281° West 406 467 36,000 397 Climbing Indianapolis Center
Sat 11:02:21 PM 39.1075 -80.8708 281° West 405 466 36,000  Level Indianapolis Center
Sat 11:03:21 PM 39.1286 -81.0147 281° West 410 472 36,000  Level Indianapolis Center
Sat 11:04:22 PM 39.1519 -81.1594 282° West 416 479 36,000  Level Indianapolis Center
Sat 11:05:22 PM 39.1731 -81.3025 281° West 411 473 36,000  Level Indianapolis Center
Sat 11:06:23 PM 39.1936 -81.4472 280° West 413 475 36,000  Level Indianapolis Center
Sat 11:07:23 PM 39.2156 -81.5917 281° West 414 476 36,000  Level Indianapolis Center
Sat 11:08:23 PM 39.2361 -81.7342 281° West 407 468 36,000  Level Indianapolis Center
Sat 11:09:24 PM 39.2575 -81.8794 281° West 413 475 36,000  Level Indianapolis Center
Sat 11:10:24 PM 39.2783 -82.0233 281° West 410 472 36,000  Level Indianapolis Center
Sat 11:11:25 PM 39.2981 -82.1675 280° West 410 472 36,000  Level Indianapolis Center
Sat 11:12:25 PM 39.3192 -82.3122 281° West 411 473 36,000  Level Indianapolis Center
Sat 11:13:25 PM 39.3381 -82.4572 280° West 411 473 36,000 -50 Level Indianapolis Center
Sat 11:14:26 PM 39.3614 -82.6147 281° West 411 473 35,900  Descending Indianapolis Center
Sat 11:15:26 PM 39.3817 -82.7625 280° West 412 474 36,000 50 Climbing Indianapolis Center
Sat 11:16:26 PM 39.4006 -82.9097 279° West 411 473 36,000  Level Indianapolis Center
Sat 11:17:27 PM 39.4208 -83.0567 280° West 409 471 36,000  Level Indianapolis Center
Sat 11:18:27 PM 39.4400 -83.2042 280° West 410 472 36,000  Level Indianapolis Center
Sat 11:19:28 PM 39.4600 -83.3503 280° West 408 470 36,000 -50 Level Indianapolis Center
Sat 11:20:28 PM 39.4750 -83.4714 279° West 406 467 35,900  Descending Indianapolis Center
Sat 11:21:28 PM 39.4944 -83.6164 280° West 403 464 36,000 50 Climbing Indianapolis Center
Sat 11:22:29 PM 39.5128 -83.7553 280° West 386 444 36,000 248 Level Indianapolis Center
Sat 11:23:29 PM 39.5294 -83.8908 279° West 376 433 36,500 450 Climbing Indianapolis Center
Sat 11:24:29 PM 39.5461 -84.0275 279° West 378 435 36,900 397 Climbing Indianapolis Center
Sat 11:25:30 PM 39.5644 -84.1642 280° West 382 440 37,300 496 Climbing Indianapolis Center
Sat 11:26:30 PM 39.5808 -84.3031 279° West 385 443 37,900 350 Climbing Indianapolis Center
Sat 11:27:30 PM 39.5981 -84.4394 279° West 382 440 38,000 50 Climbing Indianapolis Center
Sat 11:28:31 PM 39.6147 -84.5803 279° West 389 448 38,000  Level Indianapolis Center
Sat 11:29:31 PM 39.6281 -84.7219 277° West 393 452 38,000  Level Indianapolis Center
Sat 11:30:31 PM 39.6172 -84.8619 264° West 385 443 38,000  Level Indianapolis Center
Sat 11:31:32 PM 39.6111 -84.9914 267° West 379 436 38,000  Level Indianapolis Center
Sat 11:32:32 PM 39.6031 -85.1272 266° West 376 433 38,000  Level Indianapolis Center
Sat 11:33:32 PM 39.5950 -85.2631 266° West 377 434 38,000  Level Indianapolis Center
Sat 11:34:33 PM 39.5858 -85.4028 265° West 385 443 38,000  Level Indianapolis Center
Sat 11:35:33 PM 39.5769 -85.5444 265° West 390 449 38,000  Level Indianapolis Center
Sat 11:36:33 PM 39.5675 -85.6872 265° West 394 453 38,000  Level Indianapolis Center
Sat 11:37:33 PM 39.5578 -85.8317 265° West 397 457 38,000  Level Indianapolis Center
Sat 11:38:34 PM 39.5478 -85.9769 265° West 401 461 38,000  Level Indianapolis Center
Sat 11:39:34 PM 39.5381 -86.1222 265° West 400 460 38,000  Level Indianapolis Center
Sat 11:40:34 PM 39.5283 -86.2689 265° West 401 461 38,000  Level Indianapolis Center
Sat 11:41:35 PM 39.5069 -86.4125 259° West 400 460 38,000  Level Indianapolis Center
Sat 11:42:35 PM 39.4828 -86.5550 258° West 401 461 38,000  Level Indianapolis Center
Sat 11:43:35 PM 39.4575 -86.6975 257° West 402 463 38,000  Level Indianapolis Center
Sat 11:44:35 PM 39.4325 -86.8394 257° West 402 463 38,000  Level Indianapolis Center
Sat 11:45:36 PM 39.4069 -86.9839 257° West 408 470 38,000  Level Indianapolis Center
Sat 11:46:36 PM 39.3811 -87.1283 257° West 410 472 38,000  Level Indianapolis Center
Sat 11:47:36 PM 39.3547 -87.2733 257° West 412 474 38,000  Level Indianapolis Center
Sat 11:48:36 PM 39.3283 -87.4219 257° West 421 484 38,000  Level Indianapolis Center
Sat 11:49:37 PM 39.3008 -87.5703 257° West 423 487 38,000  Level Indianapolis Center
Sat 11:50:37 PM 39.2753 -87.7069 256° West 427 491 38,000  Level Indianapolis Center
Sat 11:51:37 PM 39.2472 -87.8572 256° West 430 495 38,000  Level Indianapolis Center
Sat 11:52:13 PM 39.2300 -87.9497 257° West 431 496 38,000  Level Kansas City Center
Sat 11:53:13 PM 39.2014 -88.0992 256° West 431 496 38,000  Level Kansas City Center
Sat 11:54:14 PM 39.1725 -88.2497 256° West 432 497 38,000  Level Kansas City Center
Sat 11:55:14 PM 39.1447 -88.3992 257° West 429 494 38,000  Level Kansas City Center
Sat 11:56:14 PM 39.1153 -88.5472 256° West 427 491 38,000  Level Kansas City Center
Sat 11:57:15 PM 39.0878 -88.6808 255° West 428 493 38,000 -50 Level Kansas City Center
Sat 11:58:15 PM 39.0600 -88.8297 257° West 429 494 37,900 -1,150 Descending Kansas City Center
Sat 11:59:15 PM 39.0253 -89.0031 256° West 433 498 35,700 -2,479 Descending Kansas City Center
Sun 12:00:16 AM 38.9969 -89.1572 257° West 443 510 32,900 -2,826 Descending Kansas City Center
Sun 12:01:16 AM 38.9653 -89.3086 255° West 442 509 30,000 -3,600 Descending Kansas City Center
Sun 12:02:16 AM 38.9153 -89.4519 246° West 417 480 25,700 -4,750 Descending Kansas City Center
Sun 12:03:16 AM 38.8319 -89.5461 221° Southwest 401 461 20,500 -5,306 Descending Kansas City Center
Sun 12:04:17 AM 38.7481 -89.6383 221° Southwest 399 459 15,000 -4,413 Descending Kansas City Center
Sun 12:05:17 AM 38.6739 -89.7206 221° Southwest 369 425 11,600 -2,600 Descending Kansas City Center
Sun 12:06:17 AM 38.6128 -89.7931 223° Southwest 309 356 9,800 -1,884 Descending Kansas City Center
Sun 12:07:18 AM 38.5811 -89.8789 245° Southwest 285 328 7,800 -2,281 Descending Kansas City Center
Sun 12:08:18 AM 38.5706 -89.9703 262° West 270 311 5,200 -1,400 Descending Kansas City Center
Sun 12:09:18 AM 38.5933 -90.0483 290° West 249 287 5,000 -545 Descending Kansas City Center
Sun 12:10:19 AM 38.6261 -90.1142 303° West 229 264 4,100 -694 Descending Kansas City Center
Sun 12:11:19 AM 38.6581 -90.1775 303° West 220 253 3,600 -700 Descending Kansas City Center
Sun 12:12:19 AM 38.6836 -90.2289 303° West 196 226 2,700 -850 Descending Kansas City Center
Sun 12:13:19 AM 38.7044 -90.2714 302° West 165 190 1,900 -744 Descending Kansas City Center
Sun 12:14:20 AM 38.7247 -90.3117 303° West 148 170 1,200 -645 Descending Kansas City Center
Sun 12:15:20 AM 38.7444 -90.3506 303° West 139 160 600 -600 Descending Kansas City Center
Sun 12:17:00 AM 38.7333 -90.3667 300° West  Level FlightAware Approximate

Login

Don't have an account? Register now (free) for customized features, flight alerts, and more!